Time;durP1;ratioP1;P1;durP2;ratioP2;P2;SDS_P1;SDS_P2;PMS_P1;PMS_P2;Temp;Humidity;BMP_temperature;BMP_pressure;BME280_temperature;BME280_humidity;BME280_pressure;Samples;Min_cycle;Max_cycle;Signal;HPM_P1;HPM_P2
2021/05/01 00:01:19;;;;;;;28.75;21.33;;;6.80;99.90;;;;;;4950536;28;20035;-74
2021/05/01 00:03:45;;;;;;;35.65;21.75;;;6.70;99.90;;;;;;5010176;28;20142;-74
2021/05/01 00:06:11;;;;;;;30.02;21.30;;;6.70;99.90;;;;;;4945907;28;20482;-74
2021/05/01 00:08:36;;;;;;;36.95;22.48;;;6.60;99.90;;;;;;4937007;28;20028;-75
2021/05/01 00:11:03;;;;;;;41.58;21.27;;;6.70;99.90;;;;;;4944986;28;20087;-76
2021/05/01 00:13:31;;;;;;;37.00;22.63;;;6.70;99.90;;;;;;4947497;28;20109;-75
2021/05/01 00:15:57;;;;;;;37.38;23.00;;;6.70;99.90;;;;;;5016018;28;20034;-75
2021/05/01 00:18:23;;;;;;;34.22;23.33;;;6.60;99.90;;;;;;4989078;28;20105;-74
2021/05/01 00:20:49;;;;;;;33.15;21.92;;;6.50;99.90;;;;;;4965244;28;20031;-75
2021/05/01 00:23:14;;;;;;;39.47;24.15;;;6.50;99.90;;;;;;4950241;28;20080;-75
2021/05/01 00:25:40;;;;;;;40.25;23.00;;;6.50;99.90;;;;;;5009786;28;20114;-75
2021/05/01 00:28:11;;;;;;;34.78;22.67;;;6.40;99.90;;;;;;5019137;28;20032;-76
2021/05/01 00:30:37;;;;;;;40.83;24.02;;;6.40;99.90;;;;;;4955279;28;20032;-75
2021/05/01 00:33:03;;;;;;;41.78;26.00;;;6.30;99.90;;;;;;4952452;28;20730;-73
2021/05/01 00:35:29;;;;;;;37.15;23.52;;;6.30;99.90;;;;;;5016105;28;20094;-75
2021/05/01 00:37:55;;;;;;;36.38;23.85;;;6.20;99.90;;;;;;4951878;28;20073;-74
2021/05/01 00:40:20;;;;;;;37.00;24.05;;;6.20;99.90;;;;;;5006398;28;20080;-75
2021/05/01 00:42:46;;;;;;;40.63;24.27;;;6.10;99.90;;;;;;4953779;28;20038;-75
2021/05/01 00:45:12;;;;;;;36.17;24.10;;;6.00;99.90;;;;;;4952708;28;20023;-75
2021/05/01 00:47:38;;;;;;;40.75;24.30;;;6.10;99.90;;;;;;4952564;28;20037;-75
2021/05/01 00:50:04;;;;;;;35.30;23.73;;;6.10;99.90;;;;;;4953430;28;20553;-74
2021/05/01 00:52:32;;;;;;;31.80;22.52;;;6.10;99.90;;;;;;4952212;28;20034;-74
2021/05/01 00:54:57;;;;;;;35.45;22.52;;;6.10;99.90;;;;;;4953545;28;20720;-74
2021/05/01 00:57:25;;;;;;;38.38;23.88;;;6.10;99.90;;;;;;4952245;28;20031;-74
2021/05/01 00:59:50;;;;;;;38.97;23.13;;;6.10;99.90;;;;;;4952516;28;20046;-75
2021/05/01 01:02:22;;;;;;;33.40;23.33;;;6.00;99.90;;;;;;4953130;28;20031;-74
2021/05/01 01:04:48;;;;;;;41.23;22.90;;;5.90;99.90;;;;;;5015562;28;20107;-75
2021/05/01 01:07:14;;;;;;;41.30;22.92;;;5.90;99.90;;;;;;4943779;28;20300;-75
2021/05/01 01:09:39;;;;;;;39.13;23.10;;;5.80;99.90;;;;;;4940796;28;20059;-76
2021/05/01 01:12:06;;;;;;;40.10;22.88;;;5.90;99.90;;;;;;4940542;28;20028;-75
2021/05/01 01:14:32;;;;;;;38.25;23.63;;;5.80;99.90;;;;;;5016520;28;20031;-76
2021/05/01 01:17:00;;;;;;;37.38;24.48;;;5.70;99.90;;;;;;5007998;28;20018;-74
2021/05/01 01:19:25;;;;;;;51.63;24.77;;;5.70;99.90;;;;;;4952433;28;20087;-75
2021/05/01 01:21:51;;;;;;;36.20;22.77;;;5.70;99.90;;;;;;4952209;28;20051;-75
2021/05/01 01:24:17;;;;;;;39.80;23.90;;;5.70;99.90;;;;;;4948799;28;20039;-75
2021/05/01 01:26:43;;;;;;;42.40;24.73;;;5.60;99.90;;;;;;4949916;28;20423;-75
2021/05/01 01:29:13;;;;;;;45.75;24.83;;;5.60;99.90;;;;;;4950099;28;20031;-76
2021/05/01 01:31:42;;;;;;;36.20;24.08;;;5.60;99.90;;;;;;5020772;28;20043;-76
2021/05/01 01:34:08;;;;;;;38.35;24.52;;;5.60;99.90;;;;;;5014795;28;20034;-74
2021/05/01 01:36:33;;;;;;;41.50;23.95;;;5.50;99.90;;;;;;4964597;28;20025;-73
2021/05/01 01:38:59;;;;;;;37.88;23.20;;;5.50;99.90;;;;;;4948642;28;20058;-74
2021/05/01 01:41:25;;;;;;;38.05;24.13;;;5.50;99.90;;;;;;4965806;28;20011;-75
2021/05/01 01:43:52;;;;;;;33.45;22.15;;;5.50;99.90;;;;;;4952324;28;20023;-75
2021/05/01 01:46:17;;;;;;;38.15;23.85;;;5.50;99.90;;;;;;4947954;28;20027;-74
2021/05/01 01:48:43;;;;;;;32.08;22.02;;;5.50;99.90;;;;;;4948270;28;20050;-75
2021/05/01 01:51:09;;;;;;;37.53;24.02;;;5.40;99.90;;;;;;4963155;28;20024;-74
2021/05/01 01:53:36;;;;;;;35.60;23.67;;;5.30;99.90;;;;;;4945506;28;20035;-73
2021/05/01 01:56:02;;;;;;;38.20;23.75;;;5.20;99.90;;;;;;5024116;28;20031;-73
2021/05/01 01:58:29;;;;;;;40.60;25.30;;;5.20;99.90;;;;;;4964732;28;20046;-75
2021/05/01 02:00:55;;;;;;;38.42;24.33;;;5.20;99.90;;;;;;5025295;28;20023;-74
2021/05/01 02:03:21;;;;;;;38.67;24.88;;;5.10;99.90;;;;;;4951351;28;20042;-74
2021/05/01 02:05:47;;;;;;;37.50;23.90;;;5.20;99.90;;;;;;4950796;28;20027;-73
2021/05/01 02:08:13;;;;;;;42.15;24.85;;;5.20;99.90;;;;;;4951841;28;20107;-74
2021/05/01 02:10:40;;;;;;;39.70;24.73;;;5.20;99.90;;;;;;4950767;28;20023;-73
2021/05/01 02:13:07;;;;;;;41.05;25.23;;;5.20;99.90;;;;;;4958818;28;20430;-74
2021/05/01 02:15:33;;;;;;;38.63;24.13;;;5.10;99.90;;;;;;4951141;28;20028;-73
2021/05/01 02:18:00;;;;;;;40.03;24.63;;;5.20;99.90;;;;;;5018679;28;20024;-74
2021/05/01 02:20:37;;;;;;;41.00;23.73;;;5.10;99.90;;;;;;5022395;28;20024;-74
2021/05/01 02:23:04;;;;;;;36.42;23.33;;;5.10;99.90;;;;;;4962743;28;20352;-74
2021/05/01 02:25:30;;;;;;;45.70;24.75;;;5.10;99.90;;;;;;4967956;28;20042;-75
2021/05/01 02:27:56;;;;;;;45.75;25.90;;;5.10;99.90;;;;;;4957550;28;20036;-76
2021/05/01 02:30:25;;;;;;;38.28;24.98;;;5.10;99.90;;;;;;4951893;28;20114;-74
2021/05/01 02:32:51;;;;;;;43.53;24.98;;;5.00;99.90;;;;;;4953094;28;20035;-74
2021/05/01 02:35:20;;;;;;;39.13;23.00;;;5.00;99.90;;;;;;4952398;28;20031;-74
2021/05/01 02:37:46;;;;;;;35.85;23.83;;;5.00;99.90;;;;;;4951426;28;20063;-73
2021/05/01 02:40:14;;;;;;;39.42;23.60;;;5.00;99.90;;;;;;4949845;28;20030;-75
2021/05/01 02:42:42;;;;;;;33.83;23.77;;;5.10;99.90;;;;;;4977277;28;20027;-75
2021/05/01 02:45:12;;;;;;;38.42;23.80;;;5.10;99.90;;;;;;4958170;28;20069;-77
2021/05/01 02:47:38;;;;;;;42.20;24.23;;;5.00;99.90;;;;;;4962465;28;20027;-74
2021/05/01 02:50:06;;;;;;;36.67;24.30;;;5.00;99.90;;;;;;4958593;28;20076;-73
2021/05/01 02:52:32;;;;;;;35.92;23.77;;;4.90;99.90;;;;;;4945447;28;20031;-74
2021/05/01 02:54:57;;;;;;;39.35;24.08;;;4.90;99.90;;;;;;4953572;28;20027;-74
2021/05/01 02:57:24;;;;;;;38.15;24.90;;;4.90;99.90;;;;;;5029957;28;20031;-73
2021/05/01 02:59:50;;;;;;;38.33;24.58;;;4.90;99.90;;;;;;5031116;28;20030;-74
2021/05/01 03:02:18;;;;;;;38.97;23.40;;;4.90;99.90;;;;;;4947680;28;20118;-73
2021/05/01 03:04:44;;;;;;;39.95;23.95;;;4.90;99.90;;;;;;4952892;28;20048;-74
2021/05/01 03:07:09;;;;;;;33.95;23.75;;;5.10;99.90;;;;;;4992572;28;20123;-72
2021/05/01 03:09:36;;;;;;;43.40;24.52;;;5.10;99.90;;;;;;4948819;28;20437;-73
2021/05/01 03:12:02;;;;;;;38.45;23.85;;;5.00;99.90;;;;;;4950921;28;20036;-74
2021/05/01 03:14:28;;;;;;;37.80;23.27;;;4.80;99.90;;;;;;4940781;28;20394;-72
2021/05/01 03:16:54;;;;;;;36.88;23.80;;;4.80;99.90;;;;;;4951669;28;20438;-72
2021/05/01 03:19:20;;;;;;;36.45;22.17;;;4.70;99.90;;;;;;4950892;28;20309;-74
2021/05/01 03:21:46;;;;;;;39.00;23.35;;;4.60;99.90;;;;;;5006964;28;20118;-73
2021/05/01 03:24:12;;;;;;;30.13;21.05;;;4.60;99.90;;;;;;5001359;28;20122;-74
2021/05/01 03:26:38;;;;;;;37.63;21.38;;;4.60;99.90;;;;;;4948896;28;20032;-73
2021/05/01 03:29:04;;;;;;;36.85;22.45;;;4.60;99.90;;;;;;4960928;28;20030;-72
2021/05/01 03:31:30;;;;;;;32.30;21.15;;;4.60;99.90;;;;;;4950380;28;20079;-74
2021/05/01 03:33:56;;;;;;;37.58;21.33;;;4.60;99.90;;;;;;4941812;28;20024;-75
2021/05/01 03:36:21;;;;;;;38.25;22.33;;;4.60;99.90;;;;;;4953967;28;20576;-73
2021/05/01 03:38:47;;;;;;;34.78;20.70;;;4.60;99.90;;;;;;4940461;28;20030;-73
2021/05/01 03:41:12;;;;;;;37.40;21.73;;;4.60;99.90;;;;;;5034788;28;20025;-75
2021/05/01 03:43:38;;;;;;;33.42;20.92;;;4.60;99.90;;;;;;4960981;28;20047;-75
2021/05/01 03:46:04;;;;;;;35.30;19.95;;;4.60;99.90;;;;;;4957122;28;20090;-74
2021/05/01 03:48:30;;;;;;;40.20;23.52;;;4.50;99.90;;;;;;5028993;28;20023;-74
2021/05/01 03:50:55;;;;;;;31.02;21.83;;;4.50;99.90;;;;;;4964450;28;20030;-73
2021/05/01 03:53:22;;;;;;;35.67;22.90;;;4.50;99.90;;;;;;4961605;28;20035;-74
2021/05/01 03:55:48;;;;;;;40.92;22.40;;;4.50;99.90;;;;;;4950442;28;20109;-74
2021/05/01 03:58:13;;;;;;;40.33;22.05;;;4.50;99.90;;;;;;5013617;28;20043;-73
2021/05/01 04:00:39;;;;;;;39.25;22.65;;;4.50;99.90;;;;;;5002497;28;20075;-74
2021/05/01 04:03:05;;;;;;;35.75;20.90;;;4.50;99.90;;;;;;4940280;28;20077;-73
2021/05/01 04:05:31;;;;;;;35.97;20.38;;;4.50;99.90;;;;;;4951453;28;20031;-73
2021/05/01 04:07:57;;;;;;;33.88;20.88;;;4.60;99.90;;;;;;4951260;28;20039;-74
2021/05/01 04:10:23;;;;;;;35.30;22.33;;;4.60;99.90;;;;;;4950125;28;20028;-73
2021/05/01 04:12:48;;;;;;;32.33;21.33;;;4.50;99.90;;;;;;4949509;28;20064;-74
2021/05/01 04:15:14;;;;;;;37.42;20.95;;;4.40;99.90;;;;;;4951152;28;20696;-75
2021/05/01 04:17:40;;;;;;;36.58;20.88;;;4.40;99.90;;;;;;4943885;28;20020;-74
2021/05/01 04:20:07;;;;;;;34.95;20.60;;;4.40;99.90;;;;;;4947338;28;20383;-75
2021/05/01 04:22:33;;;;;;;33.80;20.88;;;4.50;99.90;;;;;;5010719;28;20027;-74
2021/05/01 04:24:59;;;;;;;34.22;21.27;;;4.50;99.90;;;;;;4954881;28;20023;-75
2021/05/01 04:27:25;;;;;;;34.35;21.55;;;4.50;99.90;;;;;;4936405;28;20372;-74
2021/05/01 04:29:50;;;;;;;34.13;22.08;;;4.50;99.90;;;;;;4941396;28;20035;-75
2021/05/01 04:32:16;;;;;;;34.17;21.92;;;4.50;99.90;;;;;;5010470;28;20375;-74
2021/05/01 04:34:42;;;;;;;30.77;20.85;;;4.40;99.90;;;;;;4947353;28;20655;-74
2021/05/01 04:37:08;;;;;;;34.92;21.35;;;4.40;99.90;;;;;;4939903;28;20019;-75
2021/05/01 04:39:34;;;;;;;32.22;20.95;;;4.40;99.90;;;;;;4978948;28;20058;-74
2021/05/01 04:42:02;;;;;;;31.50;20.02;;;4.50;99.90;;;;;;4995826;28;20019;-74
2021/05/01 04:44:28;;;;;;;29.27;19.92;;;4.50;99.90;;;;;;5009034;28;20114;-72
2021/05/01 04:46:54;;;;;;;31.67;20.20;;;4.50;99.90;;;;;;5014905;28;20051;-73
2021/05/01 04:49:20;;;;;;;30.58;20.65;;;4.50;99.90;;;;;;4950670;28;20081;-74
2021/05/01 04:51:45;;;;;;;32.15;18.73;;;4.60;99.90;;;;;;4966997;28;20020;-74
2021/05/01 04:54:11;;;;;;;29.50;20.88;;;4.60;99.90;;;;;;4940066;28;20072;-74
2021/05/01 04:56:38;;;;;;;30.38;19.63;;;4.60;99.90;;;;;;4941583;28;20043;-74
2021/05/01 04:59:05;;;;;;;26.05;17.52;;;4.70;99.90;;;;;;4950868;28;20656;-74
2021/05/01 05:01:33;;;;;;;26.25;17.40;;;4.80;99.90;;;;;;4941559;28;20028;-73
2021/05/01 05:03:58;;;;;;;27.08;17.95;;;5.00;99.90;;;;;;5012172;28;20027;-73
2021/05/01 05:06:24;;;;;;;23.60;17.38;;;5.00;99.90;;;;;;4946018;28;20023;-73
2021/05/01 05:08:49;;;;;;;22.20;17.15;;;5.10;99.90;;;;;;5014531;28;20020;-72
2021/05/01 05:11:15;;;;;;;27.70;17.13;;;5.30;99.90;;;;;;5017061;28;20019;-71
2021/05/01 05:13:41;;;;;;;28.58;17.20;;;5.40;99.90;;;;;;5013072;28;20020;-73
2021/05/01 05:16:07;;;;;;;22.85;16.80;;;5.50;99.90;;;;;;4994931;28;20482;-74
2021/05/01 05:18:33;;;;;;;21.38;15.75;;;5.50;99.90;;;;;;5011775;28;20047;-75
2021/05/01 05:20:59;;;;;;;26.83;17.55;;;5.50;99.90;;;;;;5013171;28;20105;-76
2021/05/01 05:23:25;;;;;;;22.10;16.98;;;5.60;99.90;;;;;;5019127;28;20019;-76
2021/05/01 05:25:51;;;;;;;20.98;15.35;;;5.70;99.90;;;;;;5023958;28;20035;-75
2021/05/01 05:28:17;;;;;;;20.48;15.20;;;5.70;99.90;;;;;;5004964;28;20028;-76
2021/05/01 05:30:42;;;;;;;24.98;16.45;;;5.90;99.90;;;;;;4954642;28;20035;-74
2021/05/01 05:33:09;;;;;;;24.42;14.90;;;5.90;99.90;;;;;;5008177;28;20032;-76
2021/05/01 05:35:35;;;;;;;26.65;15.57;;;6.10;99.90;;;;;;4955067;28;20062;-75
2021/05/01 05:38:01;;;;;;;24.63;14.73;;;6.30;99.90;;;;;;4945356;28;20043;-76
2021/05/01 05:40:27;;;;;;;25.73;14.52;;;6.40;99.90;;;;;;5015820;28;20017;-76
2021/05/01 05:42:53;;;;;;;21.88;13.82;;;6.50;99.90;;;;;;4951611;28;20044;-73
2021/05/01 05:45:25;;;;;;;26.65;14.65;;;6.60;99.90;;;;;;4952462;28;20225;-75
2021/05/01 05:47:52;;;;;;;26.55;13.82;;;6.70;99.90;;;;;;4939608;28;20138;-72
2021/05/01 05:50:18;;;;;;;20.65;13.82;;;6.70;99.90;;;;;;4951981;28;20126;-74
2021/05/01 05:52:43;;;;;;;21.10;13.15;;;6.80;99.90;;;;;;4946801;28;20082;-74
2021/05/01 05:55:10;;;;;;;16.80;13.35;;;6.80;99.90;;;;;;4949354;28;20517;-73
2021/05/01 05:57:38;;;;;;;21.55;12.77;;;6.70;99.90;;;;;;4951528;28;20031;-74
2021/05/01 06:00:05;;;;;;;19.15;13.23;;;6.80;99.90;;;;;;5018686;28;20022;-75
2021/05/01 06:02:32;;;;;;;21.55;12.38;;;6.80;99.90;;;;;;4951901;28;20398;-74
2021/05/01 06:05:02;;;;;;;27.10;12.70;;;7.00;99.90;;;;;;5017698;28;20035;-74
2021/05/01 06:07:40;;;;;;;15.65;10.75;;;7.00;99.90;;;;;;4951548;28;20157;-71
2021/05/01 06:10:08;;;;;;;17.20;11.15;;;7.10;99.90;;;;;;4950920;28;20031;-73
2021/05/01 06:12:34;;;;;;;17.92;10.70;;;7.30;99.90;;;;;;4952271;28;20042;-74
2021/05/01 06:15:08;;;;;;;15.85;9.52;;;7.40;99.90;;;;;;4945302;28;20098;-71
2021/05/01 06:17:36;;;;;;;13.90;9.02;;;7.50;99.90;;;;;;4935553;28;20134;-75
2021/05/01 06:20:04;;;;;;;11.77;8.77;;;7.70;99.90;;;;;;4995618;28;20024;-73
2021/05/01 06:22:32;;;;;;;14.60;7.95;;;7.90;99.90;;;;;;4937926;28;20046;-73
2021/05/01 06:24:59;;;;;;;13.00;8.43;;;8.00;99.90;;;;;;4967309;28;20462;-73
2021/05/01 06:27:25;;;;;;;16.15;7.63;;;8.20;99.90;;;;;;4935083;28;20015;-74
2021/05/01 06:29:50;;;;;;;15.32;7.60;;;8.40;99.90;;;;;;4939611;28;20032;-73
2021/05/01 06:32:18;;;;;;;9.10;7.22;;;8.50;99.90;;;;;;4945189;28;20027;-74
2021/05/01 06:34:47;;;;;;;18.35;7.05;;;8.70;99.90;;;;;;5019343;28;20075;-73
2021/05/01 06:37:16;;;;;;;14.57;6.88;;;8.60;99.90;;;;;;4962110;28;20517;-75
2021/05/01 06:39:44;;;;;;;9.88;6.90;;;8.60;99.90;;;;;;4957009;28;20039;-75
2021/05/01 06:42:32;;;;;;;8.32;6.10;;;8.50;99.90;;;;;;5018908;28;20027;-77
2021/05/01 06:45:19;;;;;;;12.88;6.25;;;8.50;99.90;;;;;;5020058;28;20037;-74
2021/05/01 06:47:48;;;;;;;10.90;6.25;;;8.40;99.90;;;;;;4953099;28;20107;-74
2021/05/01 06:50:28;;;;;;;11.68;5.85;;;8.40;99.90;;;;;;4954769;28;20030;-75
2021/05/01 06:52:57;;;;;;;8.15;5.47;;;8.50;99.90;;;;;;5012378;28;20057;-77
2021/05/01 06:55:26;;;;;;;11.48;5.18;;;8.40;99.90;;;;;;5026131;28;20023;-72
2021/05/01 06:57:53;;;;;;;12.32;6.07;;;8.40;99.90;;;;;;5029385;28;20027;-76
2021/05/01 07:00:21;;;;;;;11.73;5.63;;;8.50;99.90;;;;;;5033976;28;20032;-77
2021/05/01 07:02:49;;;;;;;11.38;5.82;;;8.50;99.90;;;;;;4948523;28;20036;-76
2021/05/01 07:05:21;;;;;;;11.10;5.70;;;8.60;99.90;;;;;;4958871;28;20034;-72
2021/05/01 07:07:47;;;;;;;9.50;7.00;;;8.70;99.90;;;;;;4970092;28;20027;-72
2021/05/01 07:10:14;;;;;;;11.52;5.55;;;8.80;99.90;;;;;;5009568;28;20036;-74
2021/05/01 07:12:42;;;;;;;11.68;5.35;;;9.00;99.90;;;;;;4940228;28;20023;-73
2021/05/01 07:15:16;;;;;;;11.73;5.40;;;9.30;99.90;;;;;;4980128;28;20047;-73
2021/05/01 07:17:42;;;;;;;8.23;5.38;;;9.50;99.90;;;;;;5010349;28;20035;-75
2021/05/01 07:20:10;;;;;;;9.20;5.70;;;9.40;99.90;;;;;;5010311;28;20298;-74
2021/05/01 07:22:36;;;;;;;21.40;6.75;;;9.00;99.90;;;;;;4942991;28;20023;-74
2021/05/01 07:25:08;;;;;;;6.38;4.95;;;8.70;99.90;;;;;;4995946;28;20055;-77
2021/05/01 07:27:47;;;;;;;12.23;5.95;;;8.70;99.90;;;;;;4957819;28;20063;-74
2021/05/01 07:30:15;;;;;;;16.50;6.22;;;8.70;99.90;;;;;;4978564;28;20027;-75
2021/05/01 07:32:43;;;;;;;9.80;5.95;;;8.90;99.90;;;;;;4951130;28;20035;-75
2021/05/01 07:35:10;;;;;;;14.85;7.32;;;9.20;99.90;;;;;;4948435;28;20027;-75
2021/05/01 07:37:38;;;;;;;11.30;6.28;;;9.20;99.90;;;;;;4941679;28;20550;-74
2021/05/01 07:40:06;;;;;;;10.35;6.28;;;9.30;99.90;;;;;;5001088;28;20095;-74
2021/05/01 07:42:44;;;;;;;10.52;6.03;;;9.00;99.90;;;;;;4944027;28;20028;-75
2021/05/01 07:45:13;;;;;;;11.25;5.60;;;8.90;99.90;;;;;;4948035;28;20023;-74
2021/05/01 07:47:42;;;;;;;15.13;5.53;;;9.10;99.90;;;;;;4944242;28;20094;-76
2021/05/01 07:50:08;;;;;;;6.45;5.85;;;9.20;99.90;;;;;;4951180;28;20123;-74
2021/05/01 07:52:37;;;;;;;11.90;6.13;;;9.50;99.90;;;;;;5020550;28;20058;-74
2021/05/01 07:55:03;;;;;;;12.48;5.68;;;9.70;99.90;;;;;;5023772;28;20110;-72
2021/05/01 07:57:29;;;;;;;11.73;6.03;;;9.90;99.90;;;;;;4952310;28;20062;-76
2021/05/01 07:59:54;;;;;;;10.18;4.88;;;10.00;99.90;;;;;;5001301;28;20084;-74
2021/05/01 08:02:20;;;;;;;11.18;4.85;;;10.20;99.90;;;;;;4943545;28;20378;-73
2021/05/01 08:04:46;;;;;;;15.32;5.85;;;10.40;99.90;;;;;;5004621;28;20073;-74
2021/05/01 08:07:11;;;;;;;13.65;5.18;;;10.50;99.90;;;;;;4997009;28;20048;-73
2021/05/01 08:09:37;;;;;;;10.80;5.68;;;10.10;99.90;;;;;;5026567;28;20035;-75
2021/05/01 08:12:09;;;;;;;13.23;5.85;;;10.00;99.90;;;;;;4963761;28;20015;-78
2021/05/01 08:14:53;;;;;;;13.75;5.10;;;10.10;99.90;;;;;;4964402;28;20053;-75
2021/05/01 08:17:19;;;;;;;8.75;5.25;;;10.20;99.90;;;;;;4963165;28;20027;-76
2021/05/01 08:19:45;;;;;;;10.60;5.32;;;10.20;99.90;;;;;;5034832;28;20034;-78
2021/05/01 08:22:10;;;;;;;7.85;5.20;;;10.00;99.90;;;;;;4965182;28;20095;-75
2021/05/01 08:24:40;;;;;;;13.27;5.63;;;9.80;99.90;;;;;;4963157;28;20024;-73
2021/05/01 08:27:06;;;;;;;9.60;5.57;;;9.70;99.90;;;;;;4969969;28;20015;-76
2021/05/01 08:29:32;;;;;;;15.45;5.60;;;9.60;99.90;;;;;;5037719;28;20087;-76
2021/05/01 08:31:58;;;;;;;13.15;6.13;;;9.60;99.90;;;;;;4958511;28;20039;-77
2021/05/01 08:34:23;;;;;;;12.52;5.88;;;9.80;99.90;;;;;;4950668;28;20458;-74
2021/05/01 08:36:50;;;;;;;9.95;5.25;;;9.70;99.90;;;;;;4949670;28;20019;-75
2021/05/01 08:39:16;;;;;;;11.90;6.25;;;9.70;99.90;;;;;;4954922;28;20035;-76
2021/05/01 08:41:42;;;;;;;11.00;5.70;;;9.80;99.90;;;;;;4962700;28;20174;-76
2021/05/01 08:44:10;;;;;;;7.95;4.35;;;10.30;99.90;;;;;;4948391;28;20028;-75
2021/05/01 08:46:37;;;;;;;11.60;5.55;;;10.70;99.90;;;;;;4950210;28;20078;-77
2021/05/01 08:49:04;;;;;;;9.55;5.43;;;10.80;99.90;;;;;;4954233;28;20062;-76
2021/05/01 08:51:30;;;;;;;7.90;5.50;;;10.60;99.90;;;;;;4954093;28;20019;-76
2021/05/01 08:53:56;;;;;;;10.77;4.78;;;10.60;99.90;;;;;;4953124;28;20023;-75
2021/05/01 08:56:22;;;;;;;10.98;5.30;;;10.10;99.90;;;;;;4953616;28;20051;-75
2021/05/01 08:58:48;;;;;;;9.57;5.10;;;9.90;99.90;;;;;;4952499;28;20027;-74
2021/05/01 09:01:14;;;;;;;8.73;4.88;;;10.00;99.90;;;;;;4935184;28;20027;-74
2021/05/01 09:03:42;;;;;;;11.23;5.10;;;10.50;99.90;;;;;;4938206;28;20095;-77
2021/05/01 09:06:08;;;;;;;10.68;4.78;;;11.00;99.90;;;;;;4953910;28;20165;-76
2021/05/01 09:08:39;;;;;;;9.30;4.90;;;11.50;99.90;;;;;;4953964;28;20027;-76
2021/05/01 09:11:08;;;;;;;9.02;4.97;;;11.90;99.90;;;;;;4954168;28;20022;-76
2021/05/01 09:13:46;;;;;;;5.70;4.05;;;11.70;99.90;;;;;;4944856;28;20024;-75
2021/05/01 09:16:14;;;;;;;8.07;4.95;;;11.20;99.90;;;;;;4937419;28;20123;-76
2021/05/01 09:18:50;;;;;;;12.98;5.47;;;11.00;99.90;;;;;;5007500;28;20024;-79
2021/05/01 09:21:29;;;;;;;7.40;4.25;;;10.80;99.90;;;;;;4949159;28;20019;-75
2021/05/01 09:23:55;;;;;;;7.22;4.93;;;10.80;99.90;;;;;;4975178;28;20087;-78
2021/05/01 09:26:41;;;;;;;6.50;4.10;;;10.20;99.90;;;;;;4949374;28;20273;-77
2021/05/01 09:29:09;;;;;;;9.50;4.20;;;9.90;99.90;;;;;;5019492;28;20039;-77
2021/05/01 09:31:48;;;;;;;9.77;4.90;;;9.80;99.90;;;;;;4943943;28;20038;-75
2021/05/01 09:34:13;;;;;;;8.63;5.82;;;9.90;99.90;;;;;;4938719;28;20055;-79
2021/05/01 09:36:40;;;;;;;6.70;5.15;;;9.90;99.90;;;;;;4951988;28;20023;-75
2021/05/01 09:39:11;;;;;;;6.43;4.63;;;10.10;99.90;;;;;;4949861;28;20553;-78
2021/05/01 09:41:40;;;;;;;7.47;4.47;;;10.10;99.90;;;;;;5012415;28;20559;-77
2021/05/01 09:44:17;;;;;;;5.82;4.32;;;10.10;99.90;;;;;;4948958;28;20257;-76
2021/05/01 09:46:48;;;;;;;6.25;3.28;;;9.90;99.90;;;;;;4951209;28;20058;-76
2021/05/01 09:49:17;;;;;;;6.50;3.70;;;10.20;99.90;;;;;;4944885;28;20031;-78
2021/05/01 09:51:54;;;;;;;7.13;3.35;;;10.40;99.90;;;;;;4943257;28;20035;-79
2021/05/01 09:54:34;;;;;;;3.63;3.03;;;11.00;99.90;;;;;;5029400;28;20026;-77
2021/05/01 09:57:05;;;;;;;10.48;4.00;;;11.30;99.90;;;;;;4946874;28;20019;-77
2021/05/01 09:59:39;;;;;;;5.28;3.47;;;11.60;99.90;;;;;;4946728;28;20020;-76
2021/05/01 10:02:05;;;;;;;6.00;3.17;;;11.80;99.90;;;;;;4951148;28;20070;-74
2021/05/01 10:04:31;;;;;;;11.85;3.55;;;11.80;99.90;;;;;;4956195;28;20042;-77
2021/05/01 10:07:06;;;;;;;5.47;3.38;;;12.20;99.90;;;;;;4954777;28;20024;-75
2021/05/01 10:09:35;;;;;;;4.45;3.60;;;13.10;99.90;;;;;;5019412;28;20093;-77
2021/05/01 10:12:15;;;;;;;5.35;3.22;;;13.40;99.40;;;;;;4954339;28;20019;-76
2021/05/01 10:14:46;;;;;;;8.82;4.05;;;13.60;99.10;;;;;;4959288;28;20016;-76
2021/05/01 10:17:15;;;;;;;9.90;4.95;;;12.80;99.50;;;;;;5019603;28;20390;-75
2021/05/01 10:19:55;;;;;;;5.57;4.00;;;12.50;99.90;;;;;;4965455;28;20077;-77
2021/05/01 10:22:26;;;;;;;13.02;4.25;;;11.40;99.90;;;;;;4961256;28;20522;-75
2021/05/01 10:24:52;;;;;;;6.80;3.90;;;11.30;99.90;;;;;;4993118;28;20023;-73
2021/05/01 10:27:19;;;;;;;7.45;4.28;;;11.70;99.90;;;;;;4943131;28;20598;-75
2021/05/01 10:30:03;;;;;;;7.78;3.95;;;12.50;99.90;;;;;;4946161;28;20030;-76
2021/05/01 10:32:31;;;;;;;10.15;3.35;;;12.40;98.90;;;;;;5007447;28;20655;-76
2021/05/01 10:35:00;;;;;;;7.03;3.35;;;12.10;98.20;;;;;;4947680;28;20028;-77
2021/05/01 10:37:36;;;;;;;5.20;2.80;;;11.70;98.60;;;;;;4940969;28;20534;-72
2021/05/01 10:40:02;;;;;;;8.05;3.67;;;11.40;98.30;;;;;;5005877;28;20043;-78
2021/05/01 10:42:28;;;;;;;5.50;3.50;;;11.40;99.90;;;;;;5021458;28;20041;-75
2021/05/01 10:44:58;;;;;;;8.77;4.22;;;11.10;99.90;;;;;;4958858;28;20066;-76
2021/05/01 10:47:26;;;;;;;8.43;3.90;;;11.30;99.90;;;;;;5003873;28;20028;-76
2021/05/01 10:49:55;;;;;;;12.73;4.20;;;11.90;99.90;;;;;;5018697;28;20096;-76
2021/05/01 10:52:22;;;;;;;8.77;3.80;;;12.50;99.70;;;;;;4940826;28;20517;-74
2021/05/01 10:55:05;;;;;;;9.43;3.80;;;13.00;99.50;;;;;;5011031;28;20070;-76
2021/05/01 10:57:35;;;;;;;6.78;3.92;;;13.30;97.40;;;;;;4948557;28;20016;-76
2021/05/01 11:00:08;;;;;;;8.48;4.35;;;13.10;97.80;;;;;;4942526;29;20052;-74
2021/05/01 11:02:39;;;;;;;6.28;3.63;;;12.90;98.00;;;;;;4952369;28;20053;-75
2021/05/01 11:05:08;;;;;;;9.23;3.65;;;12.20;97.10;;;;;;4958372;28;20024;-78
2021/05/01 11:07:50;;;;;;;7.30;4.07;;;12.10;99.30;;;;;;4954355;28;20027;-78
2021/05/01 11:10:16;;;;;;;;;;;12.00;98.30;;;;;;4947548;28;20066;-76
2021/05/01 11:12:50;;;;;;;8.77;3.40;;;12.00;99.00;;;;;;4952365;28;20061;-75
2021/05/01 11:15:18;;;;;;;12.23;4.40;;;12.20;98.50;;;;;;4951446;28;20012;-76
2021/05/01 11:18:00;;;;;;;6.80;3.33;;;12.30;97.50;;;;;;4940074;28;20479;-76
2021/05/01 11:20:30;;;;;;;7.20;3.20;;;12.10;97.50;;;;;;4939363;28;20671;-75
2021/05/01 11:22:56;;;;;;;11.13;4.38;;;12.10;98.00;;;;;;4949735;28;20098;-76
2021/05/01 11:25:23;;;;;;;7.18;3.85;;;12.20;97.90;;;;;;4945642;28;20055;-75
2021/05/01 11:27:53;;;;;;;10.43;4.00;;;12.20;98.20;;;;;;4937538;28;20035;-75
2021/05/01 11:30:24;;;;;;;7.75;3.97;;;11.70;99.30;;;;;;4945422;28;20038;-77
2021/05/01 11:32:52;;;;;;;10.65;3.60;;;11.20;99.90;;;;;;4946421;28;20494;-77
2021/05/01 11:35:21;;;;;;;5.45;4.00;;;11.30;99.90;;;;;;4941535;28;20054;-76
2021/05/01 11:37:58;;;;;;;8.43;3.90;;;11.30;99.90;;;;;;4942359;28;20023;-76
2021/05/01 11:40:33;;;;;;;7.20;3.92;;;11.20;99.90;;;;;;4947497;28;20029;-77
2021/05/01 11:43:01;;;;;;;4.63;3.25;;;11.20;99.90;;;;;;4950032;28;20027;-77
2021/05/01 11:45:35;;;;;;;7.70;3.88;;;11.30;99.90;;;;;;4943861;28;20028;-76
2021/05/01 11:48:05;;;;;;;7.20;3.40;;;11.30;99.90;;;;;;4949151;28;20079;-74
2021/05/01 11:50:35;;;;;;;4.85;3.10;;;11.00;99.90;;;;;;5009269;28;20115;-75
2021/05/01 11:53:36;;;;;;;8.63;3.17;;;11.00;99.90;;;;;;4943881;28;20395;-75
2021/05/01 11:56:28;;;;;;;3.72;3.30;;;11.20;99.90;;;;;;4951397;28;20738;-78
2021/05/01 11:59:15;;;;;;;4.70;3.15;;;11.60;99.00;;;;;;4947509;28;20023;-76
2021/05/01 12:02:00;;;;;;;7.25;3.50;;;12.10;99.50;;;;;;5018052;28;20042;-75
2021/05/01 12:04:58;;;;;;;6.07;3.88;;;11.80;99.90;;;;;;4943636;28;20027;-74
2021/05/01 12:07:45;;;;;;;7.35;5.13;;;11.40;99.90;;;;;;4944212;28;20038;-76
2021/05/01 12:10:13;;;;;;;9.48;3.60;;;11.00;99.90;;;;;;5006220;28;20036;-74
2021/05/01 12:12:50;;;;;;;8.05;4.30;;;11.00;99.90;;;;;;4938740;28;20027;-78
2021/05/01 12:15:18;;;;;;;9.32;5.15;;;11.10;99.90;;;;;;4941315;28;20054;-76
2021/05/01 12:17:52;;;;;;;6.90;4.00;;;11.30;99.90;;;;;;4941596;28;20054;-75
2021/05/01 12:20:19;;;;;;;10.60;4.38;;;11.60;99.90;;;;;;4959719;28;20020;-77
2021/05/01 12:22:55;;;;;;;6.00;3.92;;;11.30;99.90;;;;;;4960813;28;20047;-76
2021/05/01 12:25:30;;;;;;;10.25;4.13;;;11.20;99.90;;;;;;4956561;28;20041;-76
2021/05/01 12:27:57;;;;;;;6.57;3.78;;;11.10;99.90;;;;;;5028237;28;20027;-74
2021/05/01 12:30:38;;;;;;;5.53;4.00;;;11.20;99.90;;;;;;4956994;28;20031;-74
2021/05/01 12:33:25;;;;;;;6.35;3.70;;;11.80;99.90;;;;;;4948355;28;20388;-74
2021/05/01 12:35:52;;;;;;;10.07;4.05;;;12.00;98.90;;;;;;4949602;28;20031;-74
2021/05/01 12:38:23;;;;;;;6.20;3.22;;;12.20;98.00;;;;;;4951601;28;20032;-74
2021/05/01 12:40:50;;;;;;;12.35;3.28;;;12.90;97.30;;;;;;4957871;28;20404;-78
2021/05/01 12:43:30;;;;;;;5.80;3.25;;;13.20;92.00;;;;;;4942247;28;20028;-74
2021/05/01 12:46:13;;;;;;;8.45;3.08;;;12.90;90.80;;;;;;4934959;28;20062;-73
2021/05/01 12:48:50;;;;;;;3.35;3.05;;;12.60;92.50;;;;;;4942442;28;20097;-73
2021/05/01 12:51:19;;;;;;;4.68;3.05;;;13.00;93.00;;;;;;4957694;28;20038;-77